Time;durP1;ratioP1;P1;durP2;ratioP2;P2;SDS_P1;SDS_P2;PMS_P1;PMS_P2;Temp;Humidity;BMP_temperature;BMP_pressure;BME280_temperature;BME280_humidity;BME280_pressure;Samples;Min_cycle;Max_cycle;Signal;HPM_P1;HPM_P2
2023/12/28 00:01:46;;;;;;;;;;;;;;;10.98;56.44;98680.44;4473275;32;20370;-79
2023/12/28 00:04:13;;;;;;;;;;;;;;;10.58;58.07;98678.34;4472538;32;20337;-79
2023/12/28 00:06:40;;;;;;;;;;;;;;;11.17;55.51;98674.66;4473260;32;19964;-79
2023/12/28 00:09:07;;;;;;;;;;;;;;;10.04;58.64;98676.59;4473137;32;19976;-79
2023/12/28 00:11:37;;;;;;;;;;;;;;;10.18;57.92;98680.47;4472872;32;19980;-79
2023/12/28 00:14:04;;;;;;;;;;;;;;;10.36;58.61;98672.19;4473083;32;19986;-79
2023/12/28 00:16:32;;;;;;;;;;;;;;;10.42;58.18;98675.44;4473237;32;20318;-79
2023/12/28 00:19:01;;;;;;;;;;;;;;;10.44;58.70;98677.97;4472761;32;20046;-79
2023/12/28 00:21:29;;;;;;;;;;;;;;;10.21;58.83;98681.22;4473167;32;20337;-79
2023/12/28 00:23:56;;;;;;;;;;;;;;;10.80;58.18;98681.06;4473133;32;19976;-79
2023/12/28 00:26:22;;;;;;;;;;;;;;;10.65;59.55;98685.00;4472622;32;19978;-79
2023/12/28 00:28:49;;;;;;;;;;;;;;;10.96;58.06;98684.81;4473303;32;19952;-79
2023/12/28 00:31:16;;;;;;;;;;;;;;;10.72;58.85;98683.03;4472953;32;19990;-79
2023/12/28 00:33:42;;;;;;;;;;;;;;;10.98;57.41;98674.44;4472596;32;20040;-79
2023/12/28 00:36:09;;;;;;;;;;;;;;;11.00;57.86;98670.91;4472759;32;19965;-79
2023/12/28 00:38:36;;;;;;;;;;;;;;;11.28;57.05;98675.09;4472634;32;19984;-79
2023/12/28 00:41:03;;;;;;;;;;;;;;;11.64;56.76;98678.09;4472866;32;20319;-79
2023/12/28 00:43:29;;;;;;;;;;;;;;;11.39;57.35;98672.13;4472224;32;20033;-79
2023/12/28 00:45:56;;;;;;;;;;;;;;;11.86;56.00;98681.59;4472608;32;19974;-79
2023/12/28 00:48:23;;;;;;;;;;;;;;;12.03;55.47;98677.53;4473010;32;19998;-80
2023/12/28 00:50:50;;;;;;;;;;;;;;;11.92;55.43;98675.34;4473262;32;20073;-80
2023/12/28 00:53:17;;;;;;;;;;;;;;;10.26;60.53;98681.94;4472889;32;19996;-79
2023/12/28 00:55:43;;;;;;;;;;;;;;;11.37;58.25;98681.66;4473302;32;19972;-79
2023/12/28 00:58:10;;;;;;;;;;;;;;;11.68;57.48;98677.06;4473293;32;20020;-79
2023/12/28 01:00:37;;;;;;;;;;;;;;;10.07;62.12;98679.06;4459295;32;20036;-79
2023/12/28 01:03:03;;;;;;;;;;;;;;;11.84;56.50;98678.22;4473292;32;19992;-79
2023/12/28 01:05:30;;;;;;;;;;;;;;;11.47;57.69;98672.69;4473420;32;20025;-79
2023/12/28 01:07:57;;;;;;;;;;;;;;;11.48;57.34;98666.63;4473117;32;19976;-79
2023/12/28 01:10:24;;;;;;;;;;;;;;;11.59;56.81;98672.25;4473280;32;20328;-80
2023/12/28 01:12:51;;;;;;;;;;;;;;;11.97;56.04;98672.56;4473096;32;19968;-80
2023/12/28 01:15:20;;;;;;;;;;;;;;;11.45;57.23;98672.75;4472593;32;19964;-80
2023/12/28 01:17:47;;;;;;;;;;;;;;;9.26;64.20;98678.00;4472791;32;20037;-79
2023/12/28 01:20:14;;;;;;;;;;;;;;;9.31;65.42;98681.28;4473327;32;19999;-79
2023/12/28 01:22:40;;;;;;;;;;;;;;;10.71;60.30;98678.78;4472762;32;19968;-79
2023/12/28 01:25:07;;;;;;;;;;;;;;;10.19;62.33;98677.00;4473049;32;20047;-79
2023/12/28 01:27:34;;;;;;;;;;;;;;;9.39;64.00;98673.38;4472979;32;20037;-79
2023/12/28 01:30:01;;;;;;;;;;;;;;;10.40;62.10;98673.78;4473258;32;19981;-79
2023/12/28 01:32:28;;;;;;;;;;;;;;;9.98;62.78;98668.19;4473023;32;19968;-79
2023/12/28 01:34:55;;;;;;;;;;;;;;;9.96;62.59;98668.22;4472869;32;19982;-79
2023/12/28 01:37:22;;;;;;;;;;;;;;;11.22;58.32;98657.22;4472986;32;19990;-79
2023/12/28 01:39:48;;;;;;;;;;;;;;;10.38;62.75;98649.75;4473602;32;19976;-79
2023/12/28 01:42:15;;;;;;;;;;;;;;;10.04;65.00;98649.97;4472488;32;19991;-79
2023/12/28 01:44:42;;;;;;;;;;;;;;;10.14;64.77;98647.03;4472652;32;19976;-79
2023/12/28 01:47:09;;;;;;;;;;;;;;;10.20;64.44;98651.16;4472653;32;19986;-79
2023/12/28 01:49:35;;;;;;;;;;;;;;;10.64;62.44;98647.19;4458717;32;20000;-79
2023/12/28 01:52:02;;;;;;;;;;;;;;;10.96;62.16;98653.00;4472645;32;20352;-79
2023/12/28 01:54:29;;;;;;;;;;;;;;;8.79;68.19;98645.81;4458638;32;19965;-79
2023/12/28 01:56:57;;;;;;;;;;;;;;;9.60;65.75;98652.16;4458254;32;19980;-79
2023/12/28 01:59:23;;;;;;;;;;;;;;;9.95;65.14;98637.34;4473098;32;19997;-79
2023/12/28 02:01:50;;;;;;;;;;;;;;;10.49;62.76;98637.34;4472548;32;19967;-79
2023/12/28 02:04:17;;;;;;;;;;;;;;;10.41;63.15;98635.00;4472001;32;19979;-79
2023/12/28 02:06:44;;;;;;;;;;;;;;;9.99;64.37;98634.63;4472555;32;19976;-79
2023/12/28 02:09:10;;;;;;;;;;;;;;;11.25;59.98;98637.28;4472740;32;19998;-79
2023/12/28 02:11:37;;;;;;;;;;;;;;;11.34;59.10;98638.69;4472312;32;19984;-79
2023/12/28 02:14:04;;;;;;;;;;;;;;;11.29;59.00;98636.31;4472476;32;19979;-79
2023/12/28 02:16:36;;;;;;;;;;;;;;;11.61;57.36;98636.84;4472460;32;20291;-79
2023/12/28 02:19:04;;;;;;;;;;;;;;;10.97;58.25;98631.44;4458639;32;20323;-79
2023/12/28 02:21:31;;;;;;;;;;;;;;;11.33;57.74;98625.84;4458808;32;19976;-79
2023/12/28 02:23:57;;;;;;;;;;;;;;;11.64;57.75;98635.88;4458423;32;19960;-79
2023/12/28 02:26:24;;;;;;;;;;;;;;;10.78;60.08;98626.06;4472479;32;19990;-79
2023/12/28 02:28:51;;;;;;;;;;;;;;;11.36;58.42;98625.72;4472705;32;19988;-79
2023/12/28 02:31:21;;;;;;;;;;;;;;;10.60;60.27;98616.34;4472489;32;19988;-79
2023/12/28 02:33:54;;;;;;;;;;;;;;;11.17;59.42;98623.00;4458601;32;19976;-79
2023/12/28 02:36:23;;;;;;;;;;;;;;;11.22;59.72;98621.06;4458661;32;19984;-79
2023/12/28 02:38:49;;;;;;;;;;;;;;;11.87;57.00;98618.62;4472385;32;19976;-79
2023/12/28 02:41:16;;;;;;;;;;;;;;;11.81;56.92;98621.47;4472720;32;19985;-79
2023/12/28 02:43:43;;;;;;;;;;;;;;;11.33;58.58;98607.75;4472337;32;19978;-79
2023/12/28 02:46:09;;;;;;;;;;;;;;;11.66;57.52;98616.84;4472257;32;19952;-79
2023/12/28 02:48:36;;;;;;;;;;;;;;;11.54;57.05;98615.56;4472295;32;19971;-79
2023/12/28 02:51:03;;;;;;;;;;;;;;;11.66;56.30;98608.25;4472202;32;20027;-79
2023/12/28 02:53:30;;;;;;;;;;;;;;;11.38;57.92;98614.47;4471747;32;20337;-79
2023/12/28 02:55:56;;;;;;;;;;;;;;;11.87;56.25;98610.88;4472131;32;20040;-79
2023/12/28 02:58:23;;;;;;;;;;;;;;;11.83;56.41;98603.31;4471880;32;19980;-79
2023/12/28 03:00:50;;;;;;;;;;;;;;;10.30;59.20;98601.00;4471370;32;20035;-79
2023/12/28 03:03:16;;;;;;;;;;;;;;;10.54;57.58;98590.78;4471769;32;20021;-79
2023/12/28 03:05:43;;;;;;;;;;;;;;;10.48;57.08;98589.22;4471696;32;19979;-79
2023/12/28 03:08:10;;;;;;;;;;;;;;;11.21;55.52;98590.97;4473692;32;20041;-79
2023/12/28 03:10:37;;;;;;;;;;;;;;;11.55;56.24;98590.56;4473573;32;19987;-79
2023/12/28 03:13:03;;;;;;;;;;;;;;;11.17;58.09;98587.69;4473100;32;19976;-79
2023/12/28 03:15:30;;;;;;;;;;;;;;;10.56;60.83;98581.25;4473371;32;19995;-79
2023/12/28 03:17:57;;;;;;;;;;;;;;;10.73;60.12;98578.91;4473492;32;19975;-79
2023/12/28 03:20:24;;;;;;;;;;;;;;;10.82;59.72;98576.00;4473086;32;19972;-79
2023/12/28 03:22:51;;;;;;;;;;;;;;;10.96;58.57;98575.53;4473490;32;20303;-79
2023/12/28 03:25:17;;;;;;;;;;;;;;;11.05;58.11;98575.19;4473671;32;20075;-79
2023/12/28 03:27:44;;;;;;;;;;;;;;;10.93;58.72;98565.28;4473131;32;19994;-79
2023/12/28 03:30:11;;;;;;;;;;;;;;;10.63;59.55;98560.34;4473562;32;19980;-79
2023/12/28 03:32:38;;;;;;;;;;;;;;;10.35;59.20;98563.00;4473491;32;19964;-79
2023/12/28 03:35:06;;;;;;;;;;;;;;;10.20;58.97;98555.72;4473134;32;19987;-79
2023/12/28 03:37:34;;;;;;;;;;;;;;;9.89;58.76;98558.50;4473631;32;19976;-79
2023/12/28 03:40:01;;;;;;;;;;;;;;;9.38;60.06;98561.78;4473672;32;19968;-79
2023/12/28 03:42:28;;;;;;;;;;;;;;;9.71;58.16;98552.19;4473729;32;19989;-79
2023/12/28 03:44:54;;;;;;;;;;;;;;;9.99;56.83;98557.28;4473964;32;19991;-79
2023/12/28 03:47:22;;;;;;;;;;;;;;;9.95;57.29;98558.28;4474113;32;19991;-79
2023/12/28 03:49:49;;;;;;;;;;;;;;;10.23;56.56;98547.13;4473614;32;19976;-79
2023/12/28 03:52:16;;;;;;;;;;;;;;;9.95;56.55;98540.22;4473573;32;20025;-79
2023/12/28 03:54:43;;;;;;;;;;;;;;;9.94;56.15;98541.12;4473269;32;19993;-79
2023/12/28 03:57:10;;;;;;;;;;;;;;;10.39;55.26;98533.62;4472963;32;19976;-79
2023/12/28 03:59:37;;;;;;;;;;;;;;;10.55;55.15;98533.97;4473171;32;19984;-79
2023/12/28 04:02:03;;;;;;;;;;;;;;;10.55;54.95;98527.97;4473021;32;20288;-79
2023/12/28 04:04:30;;;;;;;;;;;;;;;11.17;54.76;98530.00;4472801;32;20315;-79
2023/12/28 04:06:57;;;;;;;;;;;;;;;11.25;54.73;98531.38;4473083;32;20010;-79
2023/12/28 04:09:24;;;;;;;;;;;;;;;10.82;57.08;98523.53;4472767;32;19976;-79
2023/12/28 04:11:51;;;;;;;;;;;;;;;10.42;59.25;98524.97;4473021;32;19982;-79
2023/12/28 04:14:18;;;;;;;;;;;;;;;9.70;63.06;98529.87;4472962;32;19996;-78
2023/12/28 04:16:45;;;;;;;;;;;;;;;9.67;63.67;98527.38;4472502;32;19990;-79
2023/12/28 04:19:12;;;;;;;;;;;;;;;9.69;63.37;98523.03;4472071;32;20335;-79
2023/12/28 04:21:39;;;;;;;;;;;;;;;9.77;63.38;98521.03;4472929;32;20306;-78
2023/12/28 04:24:06;;;;;;;;;;;;;;;9.68;64.66;98521.34;4472561;32;20315;-79
2023/12/28 04:26:33;;;;;;;;;;;;;;;9.75;64.93;98524.56;4472904;32;19987;-78
2023/12/28 04:29:00;;;;;;;;;;;;;;;9.66;65.08;98520.53;4472905;32;20051;-79
2023/12/28 04:31:27;;;;;;;;;;;;;;;9.81;64.52;98514.91;4472516;32;20337;-79
2023/12/28 04:33:54;;;;;;;;;;;;;;;9.84;63.96;98521.69;4472807;32;19990;-79
2023/12/28 04:36:20;;;;;;;;;;;;;;;10.12;61.58;98525.06;4472839;32;19975;-79
2023/12/28 04:38:47;;;;;;;;;;;;;;;9.92;62.18;98524.88;4472425;32;19972;-79
2023/12/28 04:41:14;;;;;;;;;;;;;;;9.78;63.40;98521.87;4472846;32;19964;-79
2023/12/28 04:43:41;;;;;;;;;;;;;;;9.69;63.84;98519.62;4472606;32;20005;-78
2023/12/28 04:46:07;;;;;;;;;;;;;;;9.94;63.25;98515.34;4472299;32;20028;-79
2023/12/28 04:48:34;;;;;;;;;;;;;;;9.55;64.55;98522.59;4472998;32;19973;-79
2023/12/28 04:51:04;;;;;;;;;;;;;;;9.55;64.84;98522.59;4472532;32;19971;-79
2023/12/28 04:53:32;;;;;;;;;;;;;;;9.62;64.33;98521.53;4472570;32;19988;-79
2023/12/28 04:55:58;;;;;;;;;;;;;;;9.69;63.77;98519.62;4472774;32;19972;-79
2023/12/28 04:58:25;;;;;;;;;;;;;;;9.42;65.31;98522.16;4458244;32;19982;-79
2023/12/28 05:00:52;;;;;;;;;;;;;;;9.53;64.80;98519.25;4472649;32;19991;-79
2023/12/28 05:03:19;;;;;;;;;;;;;;;9.25;65.77;98519.22;4472305;32;19976;-79
2023/12/28 05:05:46;;;;;;;;;;;;;;;9.07;66.80;98515.50;4472250;32;19980;-78
2023/12/28 05:08:13;;;;;;;;;;;;;;;8.91;68.75;98509.91;4472722;32;19968;-78
2023/12/28 05:10:39;;;;;;;;;;;;;;;8.79;68.90;98499.13;4472636;32;20015;-78
2023/12/28 05:13:06;;;;;;;;;;;;;;;8.87;69.23;98498.03;4472213;32;20036;-78
2023/12/28 05:15:33;;;;;;;;;;;;;;;8.74;70.02;98507.00;4472591;32;19968;-78
2023/12/28 05:17:59;;;;;;;;;;;;;;;8.54;70.88;98493.84;4472696;32;19990;-78
2023/12/28 05:20:27;;;;;;;;;;;;;;;8.03;75.47;98495.12;4472313;32;19972;-78
2023/12/28 05:22:54;;;;;;;;;;;;;;;7.87;76.86;98495.53;4472570;32;19987;-79
2023/12/28 05:25:20;;;;;;;;;;;;;;;8.47;75.04;98506.03;4472367;32;19976;-78
2023/12/28 05:27:47;;;;;;;;;;;;;;;8.95;72.41;98516.69;4472214;32;20024;-79
2023/12/28 05:30:14;;;;;;;;;;;;;;;9.36;70.61;98517.19;4472083;32;19975;-79
2023/12/28 05:32:41;;;;;;;;;;;;;;;7.17;77.23;98523.72;4472407;32;20036;-79
2023/12/28 05:35:07;;;;;;;;;;;;;;;7.19;71.50;98525.38;4471950;32;19987;-79
2023/12/28 05:37:34;;;;;;;;;;;;;;;7.47;72.34;98529.91;4472437;32;19989;-79
2023/12/28 05:40:01;;;;;;;;;;;;;;;8.73;67.43;98531.03;4472258;32;20303;-79
2023/12/28 05:42:28;;;;;;;;;;;;;;;9.24;67.87;98533.00;4472112;32;20241;-78
2023/12/28 05:44:55;;;;;;;;;;;;;;;8.73;70.49;98520.75;4472193;32;19995;-78
2023/12/28 05:47:21;;;;;;;;;;;;;;;9.06;69.54;98526.66;4472001;32;19990;-78
2023/12/28 05:49:48;;;;;;;;;;;;;;;9.29;68.06;98533.72;4472513;32;20013;-78
2023/12/28 05:52:18;;;;;;;;;;;;;;;9.48;67.67;98537.44;4472378;32;19976;-78
2023/12/28 05:54:45;;;;;;;;;;;;;;;9.09;66.50;98536.03;4471956;32;19972;-79
2023/12/28 05:57:12;;;;;;;;;;;;;;;9.36;65.20;98534.34;4472181;32;20035;-79
2023/12/28 05:59:41;;;;;;;;;;;;;;;8.77;66.07;98527.50;4472235;32;20024;-79
2023/12/28 06:02:08;;;;;;;;;;;;;;;9.42;63.44;98518.72;4471695;32;19988;-79
2023/12/28 06:04:35;;;;;;;;;;;;;;;9.53;62.55;98516.66;4471928;32;20052;-79
2023/12/28 06:07:03;;;;;;;;;;;;;;;9.47;62.57;98522.03;4458010;32;20014;-79
2023/12/28 06:09:30;;;;;;;;;;;;;;;9.76;60.95;98527.09;4471888;32;20315;-79
2023/12/28 06:11:57;;;;;;;;;;;;;;;10.00;59.65;98519.47;4472314;32;20303;-79
2023/12/28 06:14:23;;;;;;;;;;;;;;;9.98;59.50;98527.25;4472196;32;19971;-79
2023/12/28 06:16:50;;;;;;;;;;;;;;;9.43;61.46;98518.69;4471673;32;19968;-79
2023/12/28 06:19:17;;;;;;;;;;;;;;;9.70;61.50;98535.03;4471994;32;20035;-79
2023/12/28 06:21:44;;;;;;;;;;;;;;;9.09;61.49;98547.16;4458226;32;19985;-79
2023/12/28 06:24:10;;;;;;;;;;;;;;;9.46;57.87;98559.81;4471622;32;19972;-78
2023/12/28 06:26:43;;;;;;;;;;;;;;;8.57;57.70;98565.78;4471974;32;20474;-78
2023/12/28 06:29:10;;;;;;;;;;;;;;;9.43;54.34;98566.78;4472109;32;19998;-78
2023/12/28 06:31:37;;;;;;;;;;;;;;;8.44;55.96;98559.25;4472254;32;19976;-78
2023/12/28 06:34:04;;;;;;;;;;;;;;;7.65;60.82;98549.16;4471884;32;19992;-78
2023/12/28 06:36:31;;;;;;;;;;;;;;;7.74;62.49;98544.66;4471455;32;20445;-79
2023/12/28 06:38:58;;;;;;;;;;;;;;;8.12;63.05;98538.59;4471867;32;19991;-79
2023/12/28 06:41:25;;;;;;;;;;;;;;;8.31;62.55;98543.28;4457126;32;20042;-78
2023/12/28 06:43:52;;;;;;;;;;;;;;;9.28;59.42;98548.31;4471499;32;19975;-79
2023/12/28 06:46:19;;;;;;;;;;;;;;;9.08;59.13;98554.94;4471710;32;19998;-79
2023/12/28 06:48:46;;;;;;;;;;;;;;;9.09;59.38;98548.91;4471780;32;20360;-79
2023/12/28 06:51:17;;;;;;;;;;;;;;;8.88;60.47;98555.50;4471449;32;19998;-78
2023/12/28 06:53:44;;;;;;;;;;;;;;;9.71;58.71;98547.03;4471713;32;20483;-78
2023/12/28 06:56:11;;;;;;;;;;;;;;;8.56;63.87;98552.06;4471454;32;19972;-79
2023/12/28 06:58:38;;;;;;;;;;;;;;;9.12;60.84;98544.50;4471255;32;20022;-79
2023/12/28 07:01:04;;;;;;;;;;;;;;;8.24;64.47;98542.59;4471649;32;20283;-79
2023/12/28 07:03:33;;;;;;;;;;;;;;;9.10;61.52;98551.44;4471307;32;19995;-79
2023/12/28 07:06:01;;;;;;;;;;;;;;;8.66;63.81;98544.94;4471075;32;19990;-78
2023/12/28 07:08:28;;;;;;;;;;;;;;;9.06;63.24;98542.12;4457535;32;20035;-78
2023/12/28 07:10:57;;;;;;;;;;;;;;;9.45;62.46;98539.22;4471479;32;20024;-79
2023/12/28 07:13:24;;;;;;;;;;;;;;;9.33;67.32;98540.44;4471205;32;19992;-78
2023/12/28 07:15:50;;;;;;;;;;;;;;;10.30;65.73;98546.00;4471415;32;20055;-79
2023/12/28 07:18:18;;;;;;;;;;;;;;;10.91;63.14;98555.03;4470990;32;19973;-79
2023/12/28 07:20:45;;;;;;;;;;;;;;;11.47;62.41;98546.06;4471226;32;19991;-79
2023/12/28 07:23:13;;;;;;;;;;;;;;;12.28;59.75;98561.81;4471303;32;20362;-79
2023/12/28 07:25:40;;;;;;;;;;;;;;;12.78;57.63;98570.94;4470980;32;19972;-79
2023/12/28 07:28:06;;;;;;;;;;;;;;;11.45;53.75;98574.56;4471140;32;19968;-79
2023/12/28 07:30:33;;;;;;;;;;;;;;;11.30;52.23;98583.72;4471139;32;20519;-79
2023/12/28 07:33:00;;;;;;;;;;;;;;;10.94;50.86;98585.06;4470901;32;19977;-79
2023/12/28 07:35:27;;;;;;;;;;;;;;;10.46;52.40;98585.88;4471631;32;20378;-79
2023/12/28 07:37:54;;;;;;;;;;;;;;;11.62;51.34;98588.59;4471799;32;20330;-79
2023/12/28 07:40:21;;;;;;;;;;;;;;;12.56;49.79;98589.13;4471698;32;19983;-79
2023/12/28 07:42:48;;;;;;;;;;;;;;;13.38;47.38;98585.53;4472330;32;19992;-79
2023/12/28 07:45:14;;;;;;;;;;;;;;;14.04;46.13;98579.88;4472635;32;19975;-79
2023/12/28 07:47:41;;;;;;;;;;;;;;;14.47;44.46;98576.03;4472612;32;19969;-79
2023/12/28 07:50:08;;;;;;;;;;;;;;;14.80;43.53;98572.66;4472678;32;19993;-79
2023/12/28 07:52:35;;;;;;;;;;;;;;;15.25;43.61;98572.81;4473877;32;19972;-79
2023/12/28 07:55:01;;;;;;;;;;;;;;;15.93;42.45;98576.97;4475135;32;19999;-79
2023/12/28 07:57:28;;;;;;;;;;;;;;;16.64;41.08;98577.22;4475285;32;19944;-79
2023/12/28 07:59:55;;;;;;;;;;;;;;;17.32;40.59;98587.88;4475076;32;19987;-80
2023/12/28 08:02:22;;;;;;;;;;;;;;;17.84;39.48;98584.66;4474700;32;20345;-80
2023/12/28 08:04:48;;;;;;;;;;;;;;;18.29;38.48;98585.22;4474994;32;19958;-80
2023/12/28 08:07:15;;;;;;;;;;;;;;;18.41;37.19;98594.91;4474788;32;19949;-80
2023/12/28 08:09:42;;;;;;;;;;;;;;;18.59;37.32;98595.44;4474711;32;20003;-80
2023/12/28 08:12:09;;;;;;;;;;;;;;;18.85;36.97;98591.94;4475566;32;20311;-80
2023/12/28 08:14:35;;;;;;;;;;;;;;;19.14;36.97;98600.44;4475063;32;20026;-80
2023/12/28 08:17:03;;;;;;;;;;;;;;;18.45;37.08;98598.97;4474947;32;19960;-80
2023/12/28 08:19:29;;;;;;;;;;;;;;;18.17;37.30;98594.69;4474932;32;19992;-80
2023/12/28 08:21:56;;;;;;;;;;;;;;;18.49;36.97;98608.25;4474455;32;20290;-80
2023/12/28 08:24:23;;;;;;;;;;;;;;;18.98;36.38;98610.25;4474925;32;20032;-80
2023/12/28 08:26:49;;;;;;;;;;;;;;;18.91;37.26;98614.22;4474724;32;19969;-80
2023/12/28 08:29:17;;;;;;;;;;;;;;;19.03;37.38;98616.84;4460491;32;20039;-80
2023/12/28 08:31:44;;;;;;;;;;;;;;;19.44;36.09;98614.91;4474737;32;19992;-81
2023/12/28 08:34:13;;;;;;;;;;;;;;;18.95;37.27;98620.94;4474290;32;20017;-81
2023/12/28 08:36:41;;;;;;;;;;;;;;;18.18;38.08;98630.31;4473357;32;19979;-80
2023/12/28 08:39:08;;;;;;;;;;;;;;;17.53;38.60;98630.91;4473815;32;19979;-80
2023/12/28 08:41:35;;;;;;;;;;;;;;;17.29;39.36;98640.25;4474136;32;20027;-80
2023/12/28 08:44:01;;;;;;;;;;;;;;;15.89;41.59;98637.00;4473599;32;19964;-80
2023/12/28 08:46:28;;;;;;;;;;;;;;;14.12;45.00;98627.88;4473589;32;19980;-80
2023/12/28 08:48:55;;;;;;;;;;;;;;;13.00;47.31;98633.84;4474076;32;19976;-80
2023/12/28 08:51:22;;;;;;;;;;;;;;;12.02;51.35;98621.53;4473818;32;19972;-80
2023/12/28 08:53:49;;;;;;;;;;;;;;;11.57;52.41;98635.25;4473963;32;20032;-79
2023/12/28 08:56:16;;;;;;;;;;;;;;;11.02;55.48;98632.09;4473825;32;19998;-80
2023/12/28 08:58:44;;;;;;;;;;;;;;;11.88;53.53;98634.97;4460151;32;19999;-80
2023/12/28 09:01:21;;;;;;;;;;;;;;;10.67;55.60;98629.00;4474699;32;19976;-80
2023/12/28 09:03:49;;;;;;;;;;;;;;;10.50;58.93;98631.31;4455945;32;19980;-80
2023/12/28 09:06:17;;;;;;;;;;;;;;;12.53;51.92;98631.50;4458756;32;19961;-80
2023/12/28 09:08:44;;;;;;;;;;;;;;;13.22;51.08;98642.41;4459480;32;20033;-80
2023/12/28 09:11:11;;;;;;;;;;;;;;;12.80;50.87;98629.53;4459311;32;19995;-80
2023/12/28 09:13:38;;;;;;;;;;;;;;;13.29;49.59;98642.97;4459898;32;20083;-81
2023/12/28 09:16:05;;;;;;;;;;;;;;;12.81;51.35;98635.53;4460406;32;19993;-80
2023/12/28 09:18:33;;;;;;;;;;;;;;;14.67;46.79;98632.16;4460151;32;20539;-80
2023/12/28 09:21:00;;;;;;;;;;;;;;;13.52;50.38;98639.38;4460300;32;19972;-80
2023/12/28 09:23:26;;;;;;;;;;;;;;;12.62;52.42;98644.06;4460184;32;19980;-80
2023/12/28 09:25:53;;;;;;;;;;;;;;;13.59;50.67;98639.00;4459964;32;19993;-80
2023/12/28 09:28:20;;;;;;;;;;;;;;;12.40;52.54;98633.75;4457436;32;20038;-81
2023/12/28 09:30:46;;;;;;;;;;;;;;;11.19;56.56;98634.09;4456921;32;19984;-81
2023/12/28 09:33:15;;;;;;;;;;;;;;;11.44;56.10;98621.97;4456432;32;20020;-77
2023/12/28 09:35:42;;;;;;;;;;;;;;;11.94;55.20;98621.81;4456717;32;19961;-77
2023/12/28 09:38:11;;;;;;;;;;;;;;;14.31;48.21;98614.00;4456955;32;20319;-80
2023/12/28 09:40:38;;;;;;;;;;;;;;;15.47;45.50;98611.53;4456516;32;20036;-79
2023/12/28 09:43:24;;;;;;;;;;;;;;;16.16;44.98;98603.41;4456851;32;20290;-78
2023/12/28 09:45:52;;;;;;;;;;;;;;;17.21;43.74;98608.56;4456377;32;19979;-78
2023/12/28 09:48:19;;;;;;;;;;;;;;;18.27;40.45;98608.84;4456657;32;20011;-79
2023/12/28 09:50:49;;;;;;;;;;;;;;;19.16;38.69;98595.09;4456803;32;19985;-80
2023/12/28 09:53:16;;;;;;;;;;;;;;;18.69;38.32;98592.13;4455146;32;19972;-79
2023/12/28 09:55:43;;;;;;;;;;;;;;;17.84;40.44;98595.09;4457054;32;19969;-83
2023/12/28 09:58:10;;;;;;;;;;;;;;;17.81;40.66;98595.28;4456705;32;19977;-79
2023/12/28 10:00:37;;;;;;;;;;;;;;;16.89;42.37;98594.84;4442326;32;19988;-78
2023/12/28 10:03:04;;;;;;;;;;;;;;;15.91;45.47;98590.06;4456202;32;19983;-79
2023/12/28 10:05:31;;;;;;;;;;;;;;;14.00;49.86;98578.31;4451598;32;19981;-78
2023/12/28 10:07:57;;;;;;;;;;;;;;;13.33;52.29;98574.53;4440796;32;19988;-78
2023/12/28 10:10:24;;;;;;;;;;;;;;;13.16;52.88;98556.28;4439581;32;19984;-78
2023/12/28 10:12:51;;;;;;;;;;;;;;;13.48;52.60;98554.84;4440961;32;19988;-79
2023/12/28 10:15:18;;;;;;;;;;;;;;;14.01;51.15;98536.72;4442664;32;20000;-79
2023/12/28 10:17:45;;;;;;;;;;;;;;;15.50;47.23;98525.53;4441186;32;19991;-81
2023/12/28 10:20:12;;;;;;;;;;;;;;;13.28;53.17;98545.37;4441856;32;19984;-81
2023/12/28 10:22:39;;;;;;;;;;;;;;;12.50;56.69;98537.63;4440621;32;19991;-81
2023/12/28 10:25:06;;;;;;;;;;;;;;;12.23;58.26;98540.47;4434657;32;19965;-81
2023/12/28 10:27:33;;;;;;;;;;;;;;;12.86;57.07;98541.19;4469396;32;20005;-80
2023/12/28 10:30:00;;;;;;;;;;;;;;;12.57;57.54;98542.47;4433409;32;20369;-80
2023/12/28 10:32:27;;;;;;;;;;;;;;;14.97;51.48;98533.62;4455097;32;20014;-80
2023/12/28 10:34:54;;;;;;;;;;;;;;;17.20;45.08;98545.16;4455949;32;19964;-80
2023/12/28 10:37:21;;;;;;;;;;;;;;;18.45;42.37;98544.94;4456304;32;20034;-80
2023/12/28 10:39:51;;;;;;;;;;;;;;;19.34;40.05;98550.16;4456315;32;19990;-80
2023/12/28 10:42:24;;;;;;;;;;;;;;;19.57;39.65;98553.81;4455970;32;19972;-80
2023/12/28 10:44:50;;;;;;;;;;;;;;;19.46;39.48;98543.22;4455101;32;20029;-80
2023/12/28 10:47:17;;;;;;;;;;;;;;;19.27;40.36;98541.06;4454985;32;20367;-80
2023/12/28 10:49:44;;;;;;;;;;;;;;;17.65;42.98;98535.34;4455957;32;20327;-80
2023/12/28 10:52:11;;;;;;;;;;;;;;;16.96;44.53;98533.62;4455068;32;20006;-80
2023/12/28 10:54:47;;;;;;;;;;;;;;;17.71;42.87;98535.00;4455009;32;19984;-80
2023/12/28 10:57:27;;;;;;;;;;;;;;;17.24;43.80;98536.22;4455777;32;19977;-79
2023/12/28 10:59:54;;;;;;;;;;;;;;;14.73;49.43;98515.81;4455050;32;20041;-79
2023/12/28 11:02:21;;;;;;;;;;;;;;;16.01;48.01;98507.94;4455997;32;19999;-80
2023/12/28 11:04:49;;;;;;;;;;;;;;;14.59;51.40;98499.28;4469165;32;20011;-79
2023/12/28 11:07:17;;;;;;;;;;;;;;;15.87;48.01;98498.34;4471579;32;20040;-79
2023/12/28 11:09:44;;;;;;;;;;;;;;;17.64;44.56;98486.72;4471672;32;19994;-80
2023/12/28 11:12:11;;;;;;;;;;;;;;;18.34;42.10;98489.12;4471139;32;20353;-79
2023/12/28 11:14:41;;;;;;;;;;;;;;;19.15;40.03;98505.31;4471384;32;19975;-79
2023/12/28 11:17:11;;;;;;;;;;;;;;;18.70;40.43;98510.16;4470927;32;19992;-79
2023/12/28 11:19:38;;;;;;;;;;;;;;;18.28;41.03;98506.03;4471402;32;19980;-79
2023/12/28 11:22:05;;;;;;;;;;;;;;;16.71;44.45;98508.22;4471330;32;19968;-79
2023/12/28 11:24:31;;;;;;;;;;;;;;;17.43;43.19;98496.75;4456840;32;19964;-79
2023/12/28 11:26:58;;;;;;;;;;;;;;;17.86;42.40;98494.91;4471427;32;19986;-79
2023/12/28 11:29:25;;;;;;;;;;;;;;;17.60;42.76;98491.31;4473317;32;19976;-79
2023/12/28 11:31:52;;;;;;;;;;;;;;;17.23;43.37;98495.44;4472965;32;20348;-79
2023/12/28 11:34:19;;;;;;;;;;;;;;;16.96;44.17;98497.13;4459181;32;19974;-79
2023/12/28 11:36:50;;;;;;;;;;;;;;;16.16;45.55;98488.00;4459012;32;19996;-79
2023/12/28 11:39:36;;;;;;;;;;;;;;;16.35;45.02;98487.75;4472911;32;20052;-78
2023/12/28 11:42:04;;;;;;;;;;;;;;;16.73;44.32;98485.50;4473173;32;20330;-78
2023/12/28 11:44:37;;;;;;;;;;;;;;;16.81;43.98;98492.87;4473035;32;20294;-78
2023/12/28 11:47:23;;;;;;;;;;;;;;;16.69;44.43;98491.81;4472954;32;20028;-78
2023/12/28 11:49:54;;;;;;;;;;;;;;;16.13;45.51;98504.63;4473140;32;19999;-78
2023/12/28 11:52:25;;;;;;;;;;;;;;;16.46;44.73;98490.56;4458767;32;19990;-78
2023/12/28 11:54:52;;;;;;;;;;;;;;;16.24;45.44;98482.34;4472939;32;20021;-78
2023/12/28 11:57:18;;;;;;;;;;;;;;;16.00;46.43;98484.63;4473009;32;19991;-79
2023/12/28 11:59:46;;;;;;;;;;;;;;;16.35;45.04;98486.00;4472734;32;20033;-79
2023/12/28 12:02:13;;;;;;;;;;;;;;;16.47;45.53;98466.19;4473170;32;19980;-78
2023/12/28 12:04:40;;;;;;;;;;;;;;;16.32;45.92;98459.31;4472752;32;19972;-79
2023/12/28 12:07:07;;;;;;;;;;;;;;;16.30;45.35;98461.16;4472555;32;19994;-79
2023/12/28 12:09:34;;;;;;;;;;;;;;;15.93;46.37;98452.91;4473094;32;19993;-78
2023/12/28 12:12:01;;;;;;;;;;;;;;;16.11;45.75;98451.00;4473023;32;19986;-78
2023/12/28 12:14:28;;;;;;;;;;;;;;;15.80;46.93;98450.16;4472603;32;19975;-78
2023/12/28 12:16:58;;;;;;;;;;;;;;;15.59;46.96;98440.97;4472797;32;19977;-78
2023/12/28 12:19:28;;;;;;;;;;;;;;;15.47;48.17;98447.69;4473109;32;19980;-78
2023/12/28 12:21:55;;;;;;;;;;;;;;;16.04;46.88;98453.09;4472677;32;20048;-78
2023/12/28 12:24:22;;;;;;;;;;;;;;;15.85;46.56;98445.56;4472802;32;19976;-78
2023/12/28 12:26:52;;;;;;;;;;;;;;;15.93;46.79;98450.28;4472785;32;20065;-78
2023/12/28 12:29:18;;;;;;;;;;;;;;;15.86;46.22;98438.59;4458721;32;20266;-78
2023/12/28 12:31:52;;;;;;;;;;;;;;;16.24;45.97;98436.31;4472890;32;19973;-79
2023/12/28 12:34:19;;;;;;;;;;;;;;;15.87;45.97;98429.84;4472477;32;20012;-79
2023/12/28 12:36:46;;;;;;;;;;;;;;;15.41;47.63;98422.03;4472643;32;19991;-78
2023/12/28 12:39:13;;;;;;;;;;;;;;;15.74;46.31;98432.31;4457990;32;19988;-78
2023/12/28 12:41:40;;;;;;;;;;;;;;;15.07;48.39;98427.44;4458263;32;19968;-78
2023/12/28 12:44:09;;;;;;;;;;;;;;;14.90;49.10;98438.75;4472733;32;19991;-78
2023/12/28 12:46:36;;;;;;;;;;;;;;;15.01;49.58;98436.41;4472660;32;20010;-78
2023/12/28 12:49:03;;;;;;;;;;;;;;;15.19;48.71;98448.38;4472435;32;19975;-78
2023/12/28 12:51:30;;;;;;;;;;;;;;;15.04;48.69;98444.03;4472749;32;20310;-78